Tiempo atmosférico en la estación meteorológica de Castellón de la Plana, Almazora, Castelló/Castellón (35 m.)



Fecha
DESCASC
Temp. máxima en grados centígrados (hora)
DESCASC
Temp. mínima en grados centígrados (hora)
DESCASC
Temp. media en grados centígrados
DESCASC
Racha de viento máxima en m/sg (hora)
DESCASC
Velocidad máxima media en intervalos de 10 minutos(hora)
DESCASC
Precipitaciones diarias en mm
DESCASC
Precipitaciones de 00:00 a 06:00 en mm
DESCASC
Precipitaciones de 06:00 a 12:00 en mm
DESCASC
Precipitaciones de 12:00 a 18:00 en mm
DESCASC
Precipitaciones de 18:00 a 24:00 en mm
DESCASC

Gráficas

Temp. máximas Temp. mínimas Temp. medias Precipitaciones Rachas de viento máximas Velocidades máximas media en intervalos de 10 minutos

Datos horarios

Fecha y hora oficial Temperatura (ºC) Velocidad del viento (km/h) Dirección del viento Racha (km/h) Dirección de racha Precipitación (mm) Presión (hPa) Tendencia (hPa) Humedad (%)
2020-04-09 23:00:00 15.4 2 Norte 5 Noroeste 0 1016.9 1 80
2020-04-09 22:00:00 15.5 0 Calma 6 Sudoeste 0 1016.8 1.2 80
2020-04-09 21:00:00 16 3 Sur 9 Sudeste 0 1016.1 0.7 78
2020-04-09 20:00:00 16.7 6 Este 15 Este 0 1015.9 0.4 72
2020-04-09 19:00:00 17.8 8 Sudeste 18 Sudeste 0 1015.6 -0.4 65
2020-04-09 18:00:00 19 10 Sudeste 19 Nordeste 0 1015.4 -1.2 57
2020-04-09 17:00:00 19.5 9 Sudeste 21 Este 0 1015.5 -1.2 53
2020-04-09 16:00:00 19.9 10 Sudeste 22 Este 0 1016 -1.2 51
2020-04-09 15:00:00 19.5 12 Este 24 Sudeste 0 1016.6 -0.9 59
2020-04-09 14:00:00 19.9 8 Sudeste 19 Este 0 1016.7 -0.7 54
2020-04-09 13:00:00 18.7 6 Sudeste 14 Este 0 1017.2 0.1 64
2020-04-09 12:00:00 17.3 3 Norte 9 Sudeste 0 1017.5 0.6 63
2020-04-09 11:00:00 16 2 Nordeste 7 Oeste 0 1017.4 0.9 62
2020-04-09 10:00:00 14.4 4 Oeste 9 Noroeste 0 1017.1 0.8 77
2020-04-09 09:00:00 13.1 5 Oeste 9 Oeste 0 1016.9 0.7 80
2020-04-09 08:00:00 12.4 5 Oeste 9 Oeste 0 1016.5 0.3 83
2020-04-09 07:00:00 12.2 4 Noroeste 8 Noroeste 0 1016.3 -0.2 81
2020-04-09 06:00:00 12.2 5 Noroeste 9 Noroeste 0 1016.2 -1 80
2020-04-09 05:00:00 12.5 4 Oeste 7 Oeste 0 1016.2 -1.6 82
2020-04-09 04:00:00 13.3 3 Noroeste 6 Noroeste 0 1016.5 -1.7 79
2020-04-09 03:00:00 13.7 3 Noroeste 9 Noroeste 0 1017.2 -1.3 80
2020-04-09 02:00:00 14.1 3 Noroeste 7 Noroeste 0 1017.8 -0.7 78
2020-04-09 01:00:00 14.6 4 Noroeste 8 Noroeste 0 1018.2 -0.4 75
2020-04-09 00:00:00 15.1 2 Noroeste 5 Sudeste 0 1018.5 0.7 74
2020-04-08 23:00:00 15.5 3 Sudeste 5 Sudeste 0 1018.5 0.9 66
2020-04-08 22:00:00 15.7 4 Este 9 Sudeste 0 1018.6 1 62
2020-04-08 21:00:00 15.9 5 Este 11 Este 0 1017.8 0.4 59
2020-04-08 20:00:00 16.6 6 Este 17 Sudeste 0 1017.6 -0.1 56
2020-04-08 19:00:00 17.4 7 Este 16 Sudeste 0 1017.6 -0.6 51
2020-04-08 18:00:00 17.9 8 Este 19 Sudeste 0 1017.4 -1.1 48
2020-04-08 17:00:00 18.3 10 Sudeste 21 Este 0 1017.7 -1.1 52
2020-04-08 16:00:00 19 11 Sudeste 22 Este 0 1018.2 -1.1 60
2020-04-08 15:00:00 18.7 13 Este 23 Sudeste 0 1018.5 -1.2 63
2020-04-08 14:00:00 19 12 Sudeste -- -- -- 1018.8 -1.3 60
2020-04-08 13:00:00 18.6 10 Sudeste 22 Sudeste 0 1019.3 -0.8 64
2020-04-08 12:00:00 18.6 5 Este 11 Sudeste 0 1019.7 -0.2 64
2020-04-08 11:00:00 16.7 4 Sur 8 Oeste 0 1020.1 0.6 71
2020-04-08 10:00:00 14.8 4 Noroeste 7 Noroeste 0 1020.1 0.9 81
2020-04-08 09:00:00 12.9 4 Noroeste 9 Noroeste 0 1019.9 0.4 85
2020-04-08 08:00:00 12.4 5 Noroeste 8 Oeste 0 1019.5 -0.5 87
2020-04-08 07:00:00 12.4 3 Noroeste 8 Oeste 0 1019.2 -1.1 89
2020-04-08 06:00:00 12.5 4 Noroeste 7 Noroeste 0 1019.5 -1.1 89
2020-04-08 05:00:00 12.2 4 Noroeste 8 Noroeste 0 1020 -0.8 89
2020-04-08 04:00:00 12.2 3 Noroeste 8 Noroeste 0 1020.3 -0.9 89
2020-04-08 03:00:00 12.3 2 Noroeste 6 Oeste 0 1020.6 -0.6 88
2020-04-08 02:00:00 12.8 2 Noroeste 5 Noroeste 0 1020.8 -0.5 87
2020-04-08 01:00:00 13.4 3 Noroeste 6 Noroeste 0 1021.2 0.1 85
2020-04-08 00:00:00 14.1 2 Noroeste 6 Noroeste 0 1021.2 0.7 84
2020-04-07 23:00:00 14.6 3 Noroeste 5 Noroeste 0 1021.3 1.2 83
2020-04-07 22:00:00 14.8 3 Este 6 Sudeste 0 1021.1 1.2 81
2020-04-07 21:00:00 15.1 3 Sudeste 10 Sudeste 0 1020.5 0.7 80
2020-04-07 20:00:00 15.7 5 Sudeste 13 Sudeste 0 1020.1 0.1 78
2020-04-07 19:00:00 16.7 8 Sudeste 19 Este 0 1019.9 -0.4 63
2020-04-07 18:00:00 17.7 10 Sudeste 17 Sudeste 0 1019.8 -0.8 55
2020-04-07 17:00:00 17.8 8 Sudeste 17 Sur 0 1020 -0.9 61
2020-04-07 16:00:00 17.2 6 Sudeste 14 Sudeste 0.2 1020.3 -0.7 62
2020-04-07 15:00:00 17.3 8 Sudeste 15 Sudeste 0 1020.6 -0.7 73
2020-04-07 14:00:00 17.2 3 Norte 9 Sur 0 1020.9 -0.4 68
2020-04-07 13:00:00 16.8 5 Sudeste 10 Sudeste 0 1021 0.2 77
2020-04-07 12:00:00 15.8 2 Oeste 9 Oeste 0.2 1021.3 0.8 83
2020-04-07 11:00:00 15.8 4 Sudoeste 9 Oeste 0 1021.3 1.4 80
2020-04-07 10:00:00 14.6 3 Oeste 6 Noroeste 0 1020.8 1.4 86
2020-04-07 09:00:00 13.5 5 Noroeste 10 Noroeste 0 1020.5 1.3 89
2020-04-07 08:00:00 12.8 3 Noroeste 5 Noroeste 0 1019.9 0.5 91
2020-04-07 07:00:00 12.9 3 Noroeste 8 Oeste 0 1019.4 0 91
2020-04-07 06:00:00 13.2 2 Norte 6 Noroeste 0 1019.2 -0.5 90
2020-04-07 05:00:00 13.5 2 Noroeste 6 Oeste 0 1019.4 -0.4 88
2020-04-07 04:00:00 13.6 0 Calma 4 Noroeste 0 1019.4 -0.5 88
2020-04-07 03:00:00 13.7 0 Calma 3 Noroeste 0 1019.7 -0.2 87
2020-04-07 02:00:00 13.8 0 Calma 5 Oeste 0 1019.8 0 86
2020-04-07 01:00:00 13.7 2 Noroeste 6 Oeste 0 1019.9 0 86
2020-04-07 00:00:00 14.2 3 Noroeste 7 Noroeste 0 1019.9 0.7 85
2020-04-06 23:00:00 14.4 0 Calma 5 Sudeste 0 1019.8 1.3 83
2020-04-06 22:00:00 14.8 2 Sudoeste 5 Este 0 1019.9 1.6 81
2020-04-06 21:00:00 15.1 3 Este 12 Este 0 1019.2 1.1 80
2020-04-06 20:00:00 15.6 9 Este 15 Este 0 1018.5 0.6 75
2020-04-06 19:00:00 16.1 7 Este 15 Este 0 1018.3 0.3 73
2020-04-06 18:00:00 16.5 8 Sudeste 18 Este 0 1018.1 -0.1 72
2020-04-06 17:00:00 17 8 Sudeste 20 Sudeste 0 1017.9 -0.3 68
2020-04-06 16:00:00 18.5 8 Sudeste 21 Sudeste 0 1018 -0.3 58
2020-04-06 15:00:00 18.9 10 Sudeste 24 Este 0 1018.2 0.1 57
2020-04-06 14:00:00 18.7 11 Sudeste 20 Este 0 1018.2 0.4 59
2020-04-06 13:00:00 18 8 Sudeste 24 Este 0 1018.3 1.2 64
2020-04-06 12:00:00 17.6 8 Sudeste 19 Sur 0 1018.1 1.5 67
2020-04-06 11:00:00 15.7 6 Sudeste 13 Sudeste 0 1017.8 1.8 75
2020-04-06 10:00:00 13.8 2 Nordeste 9 Noroeste 0 1017.1 1.5 80
2020-04-06 09:00:00 10.8 5 Oeste 8 Oeste 0 1016.6 1.3 90
2020-04-06 08:00:00 10.1 5 Noroeste 8 Oeste 0 1016 0.7 92
2020-04-06 07:00:00 10.4 3 Noroeste 7 Oeste 0 1015.6 0 92
2020-04-06 06:00:00 10.6 4 Noroeste 7 Oeste 0 1015.3 -0.3 91
2020-04-06 05:00:00 10.1 2 Noroeste 6 Noroeste 0 1015.3 -0.3 91
2020-04-06 04:00:00 10.3 4 Noroeste 8 Oeste 0 1015.6 0 91
2020-04-06 03:00:00 10.7 3 Noroeste 9 Oeste 0 1015.6 0 89
2020-04-06 02:00:00 10.9 4 Noroeste 7 Noroeste 0 1015.6 0.4 89
2020-04-06 01:00:00 11.1 3 Noroeste 6 Oeste 0 1015.6 0.7 87
2020-04-06 00:00:00 11.5 2 Noroeste 6 Noroeste 0 1015.6 1.2 84
2020-04-05 23:00:00 12.4 0 Calma 5 Sudoeste 0 1015.2 1 84
2020-04-05 22:00:00 13.2 3 Sur 8 Sur 0 1014.9 0.9 80
2020-04-05 21:00:00 14.1 4 Sur 10 Sur 0 1014.4 0.6 74
2020-04-05 20:00:00 15.4 5 Sudeste 17 Sudeste 0 1014.2 -0.1 69
2020-04-05 19:00:00 16.6 7 Sur 19 Sudeste 0 1014 -0.9 60
2020-04-05 18:00:00 17.1 12 Sudeste 22 Este 0 1013.8 -1.3 56
2020-04-05 17:00:00 17.4 9 Sudeste 20 Este 0 1014.3 -1.2 56
2020-04-05 16:00:00 17.7 9 Sudeste 22 Sur 0 1014.9 -0.9 56
2020-04-05 15:00:00 18.2 11 Sudeste 23 Este 0 1015.1 -0.9 55
2020-04-05 14:00:00 17.8 9 Sudeste 19 Este 0 1015.5 -0.5 58
2020-04-05 13:00:00 17.5 11 Sudeste 19 Sur 0 1015.8 0 58
2020-04-05 12:00:00 15.1 4 Este 12 Sudeste 0 1016 0.4 71
2020-04-05 11:00:00 15 3 Sudeste 7 Este 0 1016 1.1 73
2020-04-05 10:00:00 12.2 3 Noroeste 12 Noroeste 0 1015.8 1.5 76
2020-04-05 09:00:00 9.8 8 Noroeste 13 Oeste 0 1015.6 1.4 78
2020-04-05 08:00:00 9 8 Oeste 14 Noroeste 0 1014.9 0.4 83
2020-04-05 07:00:00 9.1 9 Oeste 16 Noroeste 0 1014.3 -0.4 80
2020-04-05 06:00:00 9.3 10 Oeste 18 Oeste 0 1014.2 -0.7 78
2020-04-05 05:00:00 9.1 9 Noroeste 17 Oeste 0 1014.5 -0.7 84
2020-04-05 04:00:00 9 10 Oeste 15 Noroeste 0 1014.7 -0.5 88
2020-04-05 03:00:00 9.5 9 Oeste 14 Oeste 0 1014.9 -0.3 85
2020-04-05 02:00:00 10.3 5 Noroeste 12 Noroeste 0 1015.2 -0.1 88
2020-04-05 01:00:00 11 4 Oeste 9 Noroeste 0 1015.2 0.1 89
2020-04-05 00:00:00 11.6 5 Oeste 12 Oeste 0 1015.2 0.8 88
2020-04-04 23:00:00 12.6 3 Noroeste 6 Oeste 0 1015.3 1.2 85
2020-04-04 22:00:00 13.5 0 Calma 7 Sur 0 1015.1 1.4 83
2020-04-04 21:00:00 14.4 4 Sur 12 Sur 0 1014.4 1.1 81
2020-04-04 20:00:00 15.2 6 Sur 17 Sudeste 0 1014.1 0.8 76
2020-04-04 19:00:00 16.5 8 Sur 20 Este 0 1013.7 0.2 70
2020-04-04 18:00:00 17.2 11 Sudeste 21 Este 0 1013.3 -0.6 64
2020-04-04 17:00:00 18.1 10 Sudeste 23 Este 0 1013.3 -0.8 58
2020-04-04 16:00:00 17.8 11 Este 22 Sudeste 0 1013.5 -0.8 64
2020-04-04 15:00:00 17.8 12 Este 22 Este 0 1013.9 -0.7 65
2020-04-04 14:00:00 17.8 10 Este 22 Este 0 1014.1 -0.5 63
2020-04-04 13:00:00 17.3 8 Este 17 Sudeste 0 1014.3 0.2 63
2020-04-04 12:00:00 17.1 4 Norte 10 Noroeste 0 1014.6 0.8 58
2020-04-04 11:00:00 14.4 3 Noroeste 6 Oeste 0 1014.6 1.5 65
2020-04-04 10:00:00 12 3 Norte 13 Noroeste 0 1014.1 1.4 72
2020-04-04 09:00:00 9.1 6 Noroeste 15 Noroeste 0 1013.8 1.3 80
2020-04-04 08:00:00 8.3 6 Noroeste 14 Noroeste 0 1013.1 0.5 79
2020-04-04 07:00:00 8.3 6 Noroeste 16 Noroeste 0 1012.7 0.1 81
2020-04-04 06:00:00 8.3 8 Noroeste 15 Noroeste 0 1012.5 -0.5 84
2020-04-04 05:00:00 8.5 8 Oeste 15 Oeste 0 1012.6 -0.5 84
2020-04-04 04:00:00 9.4 6 Oeste 12 Oeste 0 1012.6 -0.6 83
2020-04-04 03:00:00 9.8 8 Oeste 13 Oeste 0 1013 -0.3 84
2020-04-04 02:00:00 10 7 Noroeste 14 Noroeste 0 1013.1 0.2 83
2020-04-04 01:00:00 10.1 7 Oeste 11 Noroeste 0 1013.2 0.6 85
2020-04-04 00:00:00 10.7 4 Oeste 9 Oeste 0 1013.3 1.4 82
2020-04-03 23:00:00 11.6 3 Noroeste 9 Oeste 0 1012.9 1.5 77
2020-04-03 22:00:00 12.4 2 Sur 6 Sur 0 1012.6 1.5 73
2020-04-03 21:00:00 13.2 4 Sur 9 Este 0 1011.9 1.1 68
2020-04-03 20:00:00 14.6 5 Sudeste 15 Este 0 1011.4 0.9 59
2020-04-03 19:00:00 15.4 7 Sudeste 18 Sudeste 0 1011.1 0.4 57
2020-04-03 18:00:00 15.8 13 Sudeste 23 Este 0 1010.8 -0.1 59
2020-04-03 17:00:00 16.7 10 Sudeste 26 Este 0 1010.5 -0.5 55
2020-04-03 16:00:00 17.6 13 Sudeste 25 Sudeste 0 1010.7 -0.6 56
2020-04-03 15:00:00 17.7 11 Sudeste 21 Este 0 1010.9 -0.3 50
2020-04-03 14:00:00 17.4 10 Sudeste 19 Este 0 1011 0.2 53
2020-04-03 13:00:00 17.2 8 Sudeste 18 Sudeste 0 1011.3 0.7 47
2020-04-03 12:00:00 15.9 6 Oeste 15 Noroeste 0 1011.2 1.1 45
2020-04-03 11:00:00 14.2 9 Oeste 18 Noroeste 0 1010.8 1.4 52
2020-04-03 10:00:00 11.9 10 Oeste 17 Oeste 0 1010.6 1.9 64
2020-04-03 09:00:00 10.6 10 Oeste 19 Oeste 0 1010.1 1.6 77
2020-04-03 08:00:00 10.8 11 Oeste 18 Oeste 0 1009.4 1 83
2020-04-03 07:00:00 10.5 7 Oeste 14 Oeste 0 1008.7 0.1 90
2020-04-03 06:00:00 10.6 8 Oeste 11 Oeste 0 1008.5 -0.5 92
2020-04-03 05:00:00 11 5 Noroeste 12 Oeste 0 1008.4 -0.8 92
2020-04-03 04:00:00 11.1 6 Oeste 10 Oeste 0 1008.6 -0.6 91
2020-04-03 03:00:00 11.3 4 Noroeste 8 Oeste 0 1009 -0.2 92
2020-04-03 02:00:00 11.5 2 Noroeste 8 Noroeste 0 1009.2 0.1 91
2020-04-03 01:00:00 11.7 0 Calma 3 Norte 0 1009.2 0.4 90
2020-04-03 00:00:00 11.8 0 Calma 4 Norte 0 1009.2 1.2 89
2020-04-02 23:00:00 11.9 2 Norte 5 Este 0 1009.1 1.6 87
2020-04-02 22:00:00 12 2 Nordeste 8 Norte 0.2 1008.8 1.8 87
2020-04-02 21:00:00 12.3 3 Nordeste 10 Este 0 1008 1.5 81
2020-04-02 20:00:00 12.6 5 Este 15 Nordeste 0 1007.5 1.2 77
2020-04-02 19:00:00 12.9 5 Este 20 Nordeste 0 1007 0.9 80
2020-04-02 18:00:00 12.8 6 Nordeste 23 Este 0 1006.5 0.3 84
2020-04-02 17:00:00 13.8 9 Este 27 Este 0 1006.3 0.3 72
2020-04-02 16:00:00 14.1 9 Este 26 Nordeste 0 1006.1 -0.2 70
2020-04-02 15:00:00 15 12 Este 28 Este 0 1006.2 -0.1 75
2020-04-02 14:00:00 15.1 7 Este 18 Este 0 1006 -0.4 68
2020-04-02 13:00:00 15.2 6 Este 14 Este 0 1006.3 0.3 69
2020-04-02 12:00:00 16.1 5 Sudeste 14 Este 0 1006.3 0.6 63
2020-04-02 11:00:00 13.5 3 Este 10 Este 0 1006.4 1 72
2020-04-02 10:00:00 12.4 4 Este 7 Este 0 1006 0.9 77
2020-04-02 09:00:00 10.8 4 Norte 10 Noroeste 0 1005.7 0.5 88
2020-04-02 08:00:00 10.3 4 Noroeste 8 Noroeste 0 1005.4 0 89
2020-04-02 07:00:00 10.5 2 Noroeste 8 Oeste 0 1005.1 -0.7 88
2020-04-02 06:00:00 10.7 3 Norte 9 Noroeste 0 1005.2 -1 86
2020-04-02 05:00:00 10.6 5 Noroeste 10 Oeste 0 1005.4 -1 87
2020-04-02 04:00:00 10.9 4 Norte 6 Noroeste 0 1005.8 -1 83
2020-04-02 03:00:00 11 2 Noroeste 12 Oeste 0 1006.2 -1 83
2020-04-02 02:00:00 11.1 4 Noroeste 11 Norte 0 1006.4 -0.3 83
2020-04-02 01:00:00 11.7 4 Norte 15 Nordeste 0 1006.8 0.4 83
2020-04-02 00:00:00 12.2 5 Noroeste 19 Norte 0 1007.2 1.7 83
2020-04-01 23:00:00 12.5 6 Norte 17 Norte 0.2 1006.7 2.2 78
2020-04-01 22:00:00 12.8 5 Noroeste 14 Nordeste 0 1006.4 2.6 74
2020-04-01 21:00:00 13.3 12 Nordeste 19 Nordeste 0 1005.5 1.9 73
2020-04-01 20:00:00 15.2 4 Nordeste 29 Nordeste 0 1004.5 1 64
2020-04-01 19:00:00 16.4 16 Nordeste 28 Nordeste 0 1003.8 0.1 56
2020-04-01 18:00:00 17.8 9 Nordeste 16 Nordeste 0 1003.6 -0.4 61
2020-04-01 17:00:00 17.8 11 Norte 24 Nordeste 0 1003.5 -1.3 53
2020-04-01 16:00:00 18.8 12 Norte 38 Nordeste 0 1003.7 -1.6 51
2020-04-01 15:00:00 18.1 17 Nordeste 31 Norte 0 1004 -1.6 55
2020-04-01 14:00:00 16.7 13 Norte 31 Noroeste 0 1004.8 -0.7 69
2020-04-01 13:00:00 14 9 Noroeste 19 Noroeste 0.2 1005.3 0.4 87
2020-04-01 12:00:00 13.3 10 Noroeste 23 Noroeste 0 1005.6 1 92
2020-04-01 11:00:00 13.2 6 Oeste 14 Norte 0.2 1005.5 1 92
2020-04-01 10:00:00 13.2 8 Noroeste 30 Nordeste 1 1004.9 0.1 93
2020-04-01 09:00:00 12.6 12 Norte 27 Norte 3.2 1004.6 -0.4 95
2020-04-01 08:00:00 12.3 8 Norte 20 Norte 0 1004.5 -0.6 93
2020-04-01 07:00:00 12 11 Norte 27 Norte 3.8 1004.8 -0.2 92
2020-04-01 06:00:00 11.8 15 Norte 33 Nordeste 22.4 1005 -0.9 95
2020-04-01 05:00:00 11.5 18 Norte 42 Norte 26 1005.1 -1.2 94
2020-04-01 04:00:00 11.6 21 Norte 35 Norte 20.6 1005 -1.4 95
2020-04-01 03:00:00 12 18 Norte 33 Nordeste 18.6 1005.9 -0.8 94
2020-04-01 02:00:00 12.7 14 Nordeste 38 Nordeste 1.8 1006.3 -0.5 89
2020-04-01 01:00:00 12.4 17 Nordeste 32 Nordeste 4.8 1006.4 -0.2 92
2020-04-01 00:00:00 12.8 15 Nordeste 32 Nordeste 0 1006.7 0.9 85
2020-03-31 23:00:00 12.7 14 Nordeste 34 Nordeste 0 1006.8 1.4 85
2020-03-31 22:00:00 12.2 18 Nordeste 30 Nordeste 0 1006.6 1.7 86
2020-03-31 21:00:00 11.8 14 Norte 33 Norte 0.2 1005.8 1.4 85
2020-03-31 20:00:00 11.8 19 Norte 36 Norte 0.2 1005.4 1.4 85
2020-03-31 19:00:00 11.8 15 Nordeste 40 Nordeste 0.6 1004.9 0.3 84
2020-03-31 18:00:00 12 19 Norte 36 Nordeste 0 1004.4 0.1 83
2020-03-31 17:00:00 12.2 19 Norte 40 Nordeste 2 1004 -0.9 84
2020-03-31 16:00:00 10.9 6 Noroeste 22 Noroeste 6.4 1004.6 -0.3 94
2020-03-31 15:00:00 10.5 12 Noroeste 21 Norte 10 1004.3 -1.1 95
2020-03-31 14:00:00 10.5 11 Oeste 28 Norte 7.8 1004.9 -0.8 94
2020-03-31 13:00:00 10.6 14 Norte 24 Nordeste 8.2 1004.9 -0.3 92
2020-03-31 12:00:00 10.3 6 Noroeste 12 Noroeste 5.6 1005.4 0.6 94
2020-03-31 11:00:00 10.1 5 Noroeste 10 Noroeste 4.2 1005.7 1.1 94
2020-03-31 10:00:00 9.6 6 Oeste 10 Oeste 3.6 1005.2 0.8 95
2020-03-31 09:00:00 9.2 6 Oeste 10 Oeste 0.8 1004.8 -0.3 94
2020-03-31 08:00:00 8.4 4 Noroeste 12 Oeste 1.2 1004.6 -1.1 93
2020-03-31 07:00:00 7.9 7 Noroeste 14 Noroeste 0 1004.4 -2.2 91
2020-03-31 06:00:00 7.5 6 Noroeste 15 Norte 1.2 1005.1 -2 92
2020-03-31 05:00:00 7 6 Noroeste 17 Oeste 0.4 1005.7 -1.9 92
2020-03-31 04:00:00 6.8 7 Noroeste 15 Noroeste 0.8 1006.6 -1.6 92
2020-03-31 03:00:00 6.8 6 Noroeste 16 Noroeste 1.6 1007.1 -1.3 92
2020-03-31 02:00:00 6.9 6 Noroeste 15 Noroeste 0.6 1007.6 -1.1 90
2020-03-31 01:00:00 7.3 7 Oeste 13 Noroeste 0.2 1008.2 -0.7 88
2020-03-31 00:00:00 7.4 6 Noroeste 16 Noroeste 0.4 1008.4 -0.3 84
2020-03-30 23:00:00 7.9 5 Noroeste 15 Norte 0.2 1008.7 0.7 80
2020-03-30 22:00:00 8 7 Norte 14 Norte 0.4 1008.9 1.3 80
2020-03-30 21:00:00 8.4 6 Norte 16 Norte 0.4 1008.7 1 75
2020-03-30 20:00:00 10.1 7 Norte 21 Norte 0 1008 0.1 57
2020-03-30 19:00:00 10.8 8 Norte 16 Norte 0 1007.6 -0.5 56
2020-03-30 18:00:00 11.2 5 Norte 11 Norte 0 1007.7 -0.7 57
2020-03-30 17:00:00 10.8 6 Noroeste 15 Noroeste 0 1007.9 -0.9 62
2020-03-30 16:00:00 10.5 9 Norte 15 Norte 0.2 1008.1 -0.5 67
2020-03-30 15:00:00 9.7 10 Norte 19 Norte 0.4 1008.4 -0.1 73
2020-03-30 14:00:00 10 11 Norte 20 Noroeste 0.6 1008.8 0.5 70
2020-03-30 13:00:00 12.2 8 Norte 22 Nordeste 0 1008.6 0.6 52
2020-03-30 12:00:00 13.1 12 Norte 26 Noroeste 0 1008.5 0.9 50
2020-03-30 11:00:00 14.3 8 Nordeste 15 Nordeste 0 1008.3 1.4 44
2020-03-30 10:00:00 13.5 5 Nordeste 10 Nordeste 0 1008 1.5 49
2020-03-30 09:00:00 12.5 0 Calma 7 Norte 0 1007.6 1.2 54
2020-03-30 08:00:00 12.8 6 Norte 13 Noroeste 0 1006.9 0.4 49
2020-03-30 07:00:00 11.9 5 Noroeste 10 Oeste 0 1006.5 -0.2 55
2020-03-30 06:00:00 12 6 Noroeste 17 Oeste 0 1006.4 -0.6 57
2020-03-30 05:00:00 12.5 6 Oeste 15 Oeste 0 1006.5 -0.8 52
2020-03-30 04:00:00 12.6 10 Oeste 18 Noroeste 0 1006.7 -1.1 53
2020-03-30 03:00:00 12.2 6 Noroeste 13 Noroeste 0 1007 -0.9 59
2020-03-30 02:00:00 12.7 6 Oeste 13 Oeste 0 1007.3 -0.7 57
2020-03-30 01:00:00 12.7 3 Oeste 5 Nordeste 0 1007.8 -0.1 61
2020-03-30 00:00:00 12.8 3 Norte 6 Noroeste 0 1007.9 0.3 62
2020-03-29 23:00:00 13.7 3 Noroeste 6 Noroeste 0 1008 0.6 63
2020-03-29 22:00:00 15.5 4 Noroeste 8 Oeste 0 1007.9 0.5 57
2020-03-29 21:00:00 16.1 3 Nordeste 6 Nordeste 0 1007.6 0.1 56
2020-03-29 20:00:00 16.6 3 Nordeste 9 Sur 0 1007.4 0.1 56
2020-03-29 19:00:00 17.2 4 Sudeste 17 Sudeste 0 1007.4 -0.5 54
2020-03-29 18:00:00 19.2 8 Sur 24 Sur 0 1007.5 -1.1 51
2020-03-29 17:00:00 21 16 Sur 30 Sur 0 1007.3 -2.1 35
2020-03-29 16:00:00 22.3 14 Sur 29 Sur 0 1007.9 -2.2 32
2020-03-29 15:00:00 22.8 17 Sur 27 Sur 0 1008.6 -2 32
2020-03-29 14:00:00 21.8 11 Sudeste 22 Sur 0 1009.4 -1.5 36
2020-03-29 13:00:00 21.4 10 Sur 19 Sur 0 1010.1 -0.9 35
2020-03-29 12:00:00 20.2 5 Sudoeste 10 Noroeste 0 1010.6 -0.4 31
2020-03-29 11:00:00 16.4 7 Oeste 17 Noroeste 0 1010.9 0.1 39
2020-03-29 10:00:00 12.8 9 Oeste 20 Oeste 0 1011 0.3 55
2020-03-29 09:00:00 9.8 10 Noroeste 19 Oeste 0 1011 0.1 64
2020-03-29 08:00:00 9 12 Oeste 22 Noroeste 0 1010.8 -0.5 67
2020-03-29 07:00:00 9.1 11 Oeste 21 Oeste 0 1010.7 -1 67
2020-03-29 06:00:00 9 13 Oeste 20 Oeste 0 1010.9 -1.5 69
2020-03-29 05:00:00 9.6 13 Oeste 22 Oeste 0 1011.3 -1.5 69
2020-03-29 03:00:00 9.6 12 Oeste 21 Oeste 0 1012.4 -0.9 72
2020-03-29 01:00:00 9.5 12 Oeste 19 Oeste 0 1012.8 -0.4 74
2020-03-29 00:00:00 9.7 10 Oeste 18 Oeste 0 1013.2 0.1 75
2020-03-28 23:00:00 10.1 10 Oeste 16 Noroeste 0 1013.3 0.8 74
2020-03-28 22:00:00 10.8 6 Oeste 12 Oeste 0 1013.2 1.1 72
2020-03-28 21:00:00 12.1 4 Oeste 8 Noroeste 0 1013.1 1.3 66
2020-03-28 20:00:00 13.2 3 Sudoeste 9 Sur 0 1012.5 1 60
2020-03-28 19:00:00 14.8 5 Sur 11 Sudeste 0 1012.1 0.6 51
2020-03-28 18:00:00 15.7 4 Sudeste 16 Sudeste 0 1011.8 0 47
2020-03-28 17:00:00 16.2 12 Este 20 Este 0 1011.5 -0.5 45
2020-03-28 16:00:00 16.8 12 Este 22 Este 0 1011.5 -0.8 42
2020-03-28 15:00:00 17.4 10 Este 24 Sudeste 0 1011.8 -0.7 39
2020-03-28 14:00:00 17.8 10 Este 24 Este 0 1012 -0.5 38
2020-03-28 13:00:00 17.6 9 Este 26 Sudeste 0 1012.3 -0.2 37
2020-03-28 12:00:00 17 11 Este 20 Este 0 1012.5 0.5 39
2020-03-28 11:00:00 16.1 7 Este 15 Norte 0 1012.5 0.8 44
2020-03-28 10:00:00 12.7 6 Noroeste 15 Noroeste 0 1012.5 1.2 57
2020-03-28 09:00:00 10.9 6 Noroeste 20 Noroeste 0 1012 0.9 57
2020-03-28 08:00:00 9.4 11 Oeste 21 Oeste 0 1011.7 0.6 59
2020-03-28 07:00:00 8.8 14 Oeste 21 Oeste 0 1011.3 0.1 60
2020-03-28 06:00:00 8.1 11 Oeste 20 Oeste 0 1011.1 -0.3 63
2020-03-28 05:00:00 7.6 12 Oeste 21 Noroeste 0 1011.1 -0.4 65
2020-03-28 04:00:00 6.9 10 Oeste 19 Oeste 0 1011.2 -0.1 70
2020-03-28 03:00:00 6 10 Oeste 16 Oeste 0 1011.4 0.4 79
2020-03-28 02:00:00 6.2 10 Oeste 17 Oeste 0 1011.5 0.7 80
2020-03-28 01:00:00 6.5 7 Oeste 15 Oeste 0 1011.3 0.9 80
2020-03-28 00:00:00 7.1 10 Oeste 19 Noroeste 0 1011 1 78
2020-03-27 23:00:00 7.9 8 Oeste 15 Oeste 0 1010.8 1.4 78
2020-03-27 22:00:00 8.3 6 Oeste 10 Noroeste 0 1010.4 1.4 77
2020-03-27 21:00:00 9.7 4 Noroeste 7 Noroeste 0 1010 1.4 71
2020-03-27 20:00:00 10.7 0 Calma 8 Este 0 1009.4 1.1 58
2020-03-27 19:00:00 12 5 Sudeste 14 Sudeste 0 1009 0.7 52
2020-03-27 18:00:00 12.8 6 Sudeste 17 Sudeste 0 1008.6 0.1 54
2020-03-27 17:00:00 13.1 12 Este 21 Este 0 1008.3 -0.4 56
2020-03-27 16:00:00 14 12 Sudeste 24 Sudeste 0 1008.3 -0.5 50
2020-03-27 15:00:00 14.5 13 Este 24 Este 0 1008.5 -0.4 49
2020-03-27 14:00:00 14.5 15 Este 26 Sudeste 0 1008.7 0 51
2020-03-27 13:00:00 14.3 13 Este 30 Este 0 1008.8 0.2 52
2020-03-27 12:00:00 13.8 10 Este 26 Este 0 1008.9 0.7 55
2020-03-27 11:00:00 12.1 9 Este 21 Nordeste 0 1008.7 1 57
2020-03-27 10:00:00 11.6 9 Norte 18 Norte 0 1008.6 1.1 58
2020-03-27 09:00:00 10.5 4 Nordeste 15 Norte 0 1008.2 1.5 65
2020-03-27 08:00:00 9.3 3 Norte 10 Noroeste 0 1007.7 0.7 70
2020-03-27 07:00:00 8.6 4 Noroeste 11 Noroeste 0 1007.5 0.1 73
2020-03-27 06:00:00 8.1 4 Norte 13 Noroeste 0 1006.7 -0.7 76
2020-03-27 05:00:00 7.6 7 Noroeste 18 Noroeste 0 1007 -0.3 80
2020-03-27 04:00:00 7.8 11 Oeste 17 Oeste 0 1007.4 0.3 79
2020-03-27 03:00:00 8.3 9 Norte 23 Nordeste 0 1007.4 0.3 74
2020-03-27 02:00:00 8.3 14 Nordeste 25 Nordeste 0 1007.3 -0.1 75
2020-03-27 01:00:00 8.4 13 Norte 28 Nordeste 0 1007.1 0 73
2020-03-27 00:00:00 8.5 15 Norte 27 Nordeste 0 1007.1 0.8 72
2020-03-26 23:00:00 8.3 13 Norte 23 Nordeste 0 1007.4 1.7 70
2020-03-26 22:00:00 8.8 12 Nordeste 20 Nordeste 0 1007.1 2 70
2020-03-26 21:00:00 9.2 10 Norte 21 Nordeste 0 1006.3 2.3 74
2020-03-26 20:00:00 9.9 9 Nordeste 24 Nordeste 0 1005.7 2.5 74
2020-03-26 19:00:00 10.6 10 Nordeste 25 Nordeste 0 1005.1 2.7 71
2020-03-26 18:00:00 11.3 4 Este 28 Este 0 1004 1.7 67
2020-03-26 17:00:00 12.2 8 Este 19 Este 0 1003.2 1 64
2020-03-26 16:00:00 12.7 8 Este 24 Nordeste 0 1002.4 0.5 61
2020-03-26 15:00:00 12.7 8 Nordeste 24 Este 0 1002.3 0.4 60
2020-03-26 14:00:00 13.8 9 Este 40 Norte 0 1002.2 0.3 56
2020-03-26 13:00:00 15 16 Norte 33 Norte 0 1001.9 -0.2 36
2020-03-26 12:00:00 14.8 15 Noroeste 40 Norte 0 1001.9 -0.6 37
2020-03-26 11:00:00 14.7 3 Noroeste 14 Norte 0 1001.9 -1.2 42
2020-03-26 10:00:00 12.4 4 Noroeste 15 Oeste 0 1002.1 -1.1 51
2020-03-26 09:00:00 9.9 6 Noroeste 12 Noroeste 0 1002.5 -0.9 63
2020-03-26 08:00:00 7.6 6 Noroeste 15 Noroeste 0 1003.1 -0.5 78
2020-03-26 07:00:00 6.9 10 Oeste 21 Noroeste 0 1003.2 -1.2 83
2020-03-26 06:00:00 6.5 8 Noroeste 19 Oeste 0 1003.4 -1.8 85
2020-03-26 05:00:00 6.1 7 Noroeste 19 Oeste 0 1003.6 -2.7 89
2020-03-26 04:00:00 5.8 7 Noroeste 18 Noroeste 0 1004.4 -2.5 91
2020-03-26 03:00:00 5.7 8 Oeste 16 Oeste 0 1005.2 -2.7 91
2020-03-26 02:00:00 6 5 Noroeste 9 Oeste 0 1006.3 -2.6 90
2020-03-26 01:00:00 6.6 3 Noroeste 9 Sudoeste 0 1006.9 -2.6 88
2020-03-26 00:00:00 7.6 5 Sudoeste 12 Sudoeste 0 1007.9 -2.2 87
2020-03-25 23:00:00 8.4 5 Sudoeste 11 Sur 0 1008.9 -1 84
2020-03-25 22:00:00 9.3 6 Sudoeste 12 Sudoeste 0 1009.5 -0.4 81
2020-03-25 21:00:00 9.3 4 Sur 7 Sur 0 1010.1 -0.1 78
2020-03-25 20:00:00 9.1 3 Sur 7 Sur 0 1009.9 -0.7 79
2020-03-25 19:00:00 10.3 4 Sudoeste 9 Sudoeste 0 1009.9 -1.1 72
2020-03-25 18:00:00 11.4 4 Sudeste 11 Sudeste 0 1010.2 -1.2 66
2020-03-25 17:00:00 11.2 7 Este 11 Este 0 1010.6 -1.4 68
2020-03-25 16:00:00 11.2 4 Oeste 10 Nordeste 0 1011 -1.4 65
2020-03-25 15:00:00 10.4 4 Norte 18 Nordeste 0 1011.4 -1.1 67
2020-03-25 14:00:00 9.6 9 Norte 21 Nordeste 0 1012 -0.3 74
2020-03-25 13:00:00 9.9 12 Norte 19 Nordeste 0 1012.4 0 76
2020-03-25 12:00:00 9.7 10 Nordeste 18 Norte 0.2 1012.5 0.5 73
2020-03-25 11:00:00 9.7 8 Norte 17 Norte 0.2 1012.3 0.6 78
2020-03-25 10:00:00 9.5 9 Nordeste 17 Norte 0.4 1012.4 0.9 81
2020-03-25 09:00:00 9.8 5 Nordeste 12 Norte 0.2 1012 0.5 81
2020-03-25 08:00:00 9.6 4 Norte 18 Norte 0 1011.7 0.3 84
2020-03-25 07:00:00 10 10 Norte 20 Nordeste 0 1011.5 -0.2 78
2020-03-25 06:00:00 9.4 6 Noroeste 12 Noroeste 0 1011.5 -0.8 87
2020-03-25 05:00:00 9.6 5 Nordeste 13 Oeste 0 1011.4 -0.5 85
2020-03-25 04:00:00 9.4 7 Noroeste 19 Nordeste 0.2 1011.7 -0.7 89
2020-03-25 03:00:00 9.8 6 Nordeste 20 Nordeste 0.6 1012.3 -0.3 88
2020-03-25 02:00:00 9.9 6 Noroeste 13 Noroeste 0 1011.9 -1.3 89
2020-03-25 01:00:00 10 5 Noroeste 15 Sudeste 0.2 1012.4 -0.9 89
2020-03-25 00:00:00 10.2 5 Noroeste 19 Norte 1.2 1012.6 -0.4 91
2020-03-24 23:00:00 10.3 10 Norte 24 Nordeste 1.8 1013.2 0.6 88
2020-03-24 22:00:00 11.4 11 Nordeste 21 Nordeste 1.2 1013.3 1.2 80
2020-03-24 21:00:00 12.1 9 Norte 19 Nordeste 0 1013 1.3 74
2020-03-24 20:00:00 12.2 7 Nordeste 27 Nordeste 0 1012.6 1 73
2020-03-24 19:00:00 12.4 12 Nordeste 25 Nordeste 0 1012.1 0.1 75
2020-03-24 18:00:00 12.2 15 Nordeste 28 Norte 0 1011.7 -0.8 82
2020-03-24 17:00:00 11.5 12 Norte 24 Norte 2.2 1011.6 -1 91
2020-03-24 16:00:00 11.5 15 Norte 30 Nordeste 0 1012 -1 88
2020-03-24 15:00:00 12.5 15 Nordeste 36 Norte 0 1012.5 -0.9 81
2020-03-24 14:00:00 14.6 16 Nordeste 41 Nordeste 0 1012.6 -0.6 65
2020-03-24 13:00:00 14.5 15 Nordeste 44 Nordeste 0.2 1013 -0.2 66
2020-03-24 12:00:00 13.9 19 Nordeste 36 Nordeste 0 1013.4 0.6 70
2020-03-24 11:00:00 13.7 18 Nordeste 37 Nordeste 0 1013.2 0.7 73
2020-03-24 10:00:00 13.3 16 Nordeste 40 Nordeste 0 1013.2 1.1 80
2020-03-24 09:00:00 13.5 17 Nordeste 40 Norte 0 1012.8 0.6 76
2020-03-24 08:00:00 13.4 15 Nordeste 39 Nordeste 0 1012.5 0.9 82
2020-03-24 07:00:00 13.6 15 Nordeste 32 Norte 0 1012.1 0.4 78
2020-03-24 06:00:00 13.7 17 Nordeste 38 Nordeste 0 1012.2 0.3 80
2020-03-24 05:00:00 13.9 17 Nordeste 35 Nordeste 0 1011.6 -0.5 80
2020-03-24 04:00:00 14 12 Nordeste 33 Nordeste 0 1011.7 -0.6 84
2020-03-24 03:00:00 13.9 14 Nordeste 28 Nordeste 0 1011.9 -0.9 80
2020-03-24 02:00:00 13.9 18 Nordeste 35 Norte 0 1012.1 -0.6 81
2020-03-24 01:00:00 14 17 Nordeste 40 Nordeste 0 1012.3 -0.2 81
2020-03-24 00:00:00 14.2 14 Nordeste 28 Nordeste 0 1012.8 0.4 82
2020-03-23 23:00:00 14.2 11 Nordeste 26 Nordeste 0 1012.7 0.5 85
2020-03-23 22:00:00 14.1 13 Nordeste 26 Nordeste 0 1012.5 0.7 87
2020-03-23 21:00:00 14.3 9 Nordeste 26 Este 0 1012.4 1.1 87
2020-03-23 20:00:00 14.5 10 Este 26 Este 0 1012.2 1.1 89
2020-03-23 19:00:00 14.7 11 Nordeste 23 Nordeste 0 1011.8 0.5 82
2020-03-23 18:00:00 15 9 Nordeste 21 Nordeste 0 1011.3 -0.3 82
2020-03-23 17:00:00 14.6 5 Este 19 Este 0 1011.1 -0.6 86
2020-03-23 16:00:00 13.4 7 Noroeste 19 Noroeste 0 1011.3 -0.6 81
2020-03-23 15:00:00 12.7 8 Noroeste 24 Oeste 0 1011.6 -0.1 82
2020-03-23 14:00:00 14.1 10 Oeste 21 Oeste 0 1011.7 0 76
2020-03-23 13:00:00 15.5 6 Nordeste 24 Nordeste 0 1011.9 0.4 84
2020-03-23 12:00:00 16.6 9 Este 23 Este 0 1011.7 0.9 78
2020-03-23 11:00:00 14.7 6 Nordeste 15 Nordeste 0.2 1011.7 1.3 80
2020-03-23 10:00:00 14.3 8 Nordeste 15 Nordeste 0.4 1011.5 1.6 81
2020-03-23 09:00:00 13.7 6 Nordeste 15 Norte 0 1010.8 1.4 82
2020-03-23 08:00:00 12.9 3 Norte 8 Norte 0 1010.4 1.3 91
2020-03-23 07:00:00 12.3 2 Nordeste 5 Este 0 1009.9 0.7 94
2020-03-23 06:00:00 12.1 3 Noroeste 6 Oeste 0 1009.4 0.2 93
2020-03-23 05:00:00 12.1 4 Noroeste 9 Noroeste 0.8 1009.1 -0.4 93
2020-03-23 04:00:00 12.3 4 Nordeste 11 Norte 2.2 1009.2 -0.3 91
2020-03-23 03:00:00 12.6 5 Norte 7 Norte 2 1009.2 -0.4 92
2020-03-23 02:00:00 12.8 0 Calma 5 Noroeste 0 1009.5 -0.1 87
2020-03-23 01:00:00 12.8 3 Noroeste 8 Norte 0 1009.5 0.2 84
2020-03-23 00:00:00 13.1 8 Norte 19 Nordeste 0 1009.6 0.8 80
2020-03-22 23:00:00 13.2 6 Nordeste 15 Nordeste 0 1009.6 1.2 79
2020-03-22 22:00:00 13.1 3 Norte 7 Nordeste 0.4 1009.3 1.7 86
2020-03-22 21:00:00 13.5 3 Nordeste 13 Nordeste 0 1008.8 1.6 81
2020-03-22 20:00:00 13.6 5 Este 15 Este 0 1008.4 1.7 84
2020-03-22 19:00:00 13.7 5 Este 19 Este 0 1007.6 0.9 82
2020-03-22 18:00:00 14.5 8 Este 17 Este 0 1007.2 0.4 74
2020-03-22 17:00:00 15.5 5 Este 15 Este 0 1006.7 -0.3 71
2020-03-22 16:00:00 15.4 5 Este 16 Este 0 1006.7 -0.6 64
2020-03-22 15:00:00 15.3 6 Este 15 Sudeste 0 1006.8 -0.7 63
2020-03-22 14:00:00 15.2 6 Nordeste 14 Norte 0 1007 -0.4 67
2020-03-22 13:00:00 14.5 5 Nordeste 16 Norte 0 1007.3 0.3 75
2020-03-22 12:00:00 13.8 6 Norte 13 Norte 0 1007.5 1.1 73
2020-03-22 11:00:00 12.6 7 Norte 13 Norte 0 1007.4 1 78
2020-03-22 10:00:00 11.9 3 Norte 7 Noroeste 0 1007 0.8 86
2020-03-22 09:00:00 11.2 4 Noroeste 12 Noroeste 0 1006.4 0.6 90
2020-03-22 08:00:00 10.8 5 Noroeste 9 Norte 0 1006.4 0.7 91
2020-03-22 07:00:00 11.1 3 Norte 9 Norte 1.8 1006.2 0.4 90
2020-03-22 06:00:00 11.7 3 Norte 6 Noroeste 1.2 1005.8 -0.3 94
2020-03-22 05:00:00 11.8 3 Noroeste 5 Noroeste 0.2 1005.7 -0.9 92
2020-03-22 04:00:00 12 3 Noroeste 8 Noroeste 0.8 1005.8 -1.2 91
2020-03-22 03:00:00 12.4 4 Noroeste 11 Noroeste 0 1006.1 -1.2 86
2020-03-22 02:00:00 12.7 3 Noroeste 5 Noroeste 0 1006.6 -1 86
2020-03-22 01:00:00 12.6 2 Noroeste 9 Norte 0 1007 -0.7 86
2020-03-22 00:00:00 13 4 Norte 6 Norte 0 1007.3 -0.2 84
2020-03-21 23:00:00 13.3 3 Noroeste 5 Noroeste 0 1007.6 0.4 83
2020-03-21 22:00:00 13.5 2 Norte 5 Nordeste 0 1007.7 0.9 81
2020-03-21 21:00:00 13.5 3 Nordeste 6 Nordeste 0 1007.5 1.1 80
2020-03-21 20:00:00 13.7 3 Este 9 Este 0 1007.2 0.6 80
2020-03-21 19:00:00 14 4 Este 9 Este 0 1006.8 -0.3 79
2020-03-21 18:00:00 14.2 3 Nordeste 15 Este 0 1006.4 -1.1 78
2020-03-21 17:00:00 14.6 4 Este 13 Este 0 1006.6 -1.4 76
2020-03-21 16:00:00 14.7 6 Este 14 Este 0 1007.1 -1.3 73
2020-03-21 15:00:00 14.7 7 Este 17 Sudeste 0 1007.5 -1.5 69
2020-03-21 14:00:00 14.6 6 Este 18 Este 0 1008 -1.3 69
2020-03-21 13:00:00 14.9 6 Este 17 Sudeste 0 1008.4 -1 67
2020-03-21 12:00:00 14.7 3 Este 9 Sudeste 0 1009 -0.4 66
2020-03-21 11:00:00 13.6 3 Noroeste 14 Oeste 0 1009.3 0.2 70
2020-03-21 10:00:00 12.3 9 Oeste 14 Oeste 0 1009.4 0.4 72
2020-03-21 09:00:00 11 6 Noroeste 16 Oeste 0 1009.4 0.2 76
2020-03-21 08:00:00 10.2 9 Oeste 17 Oeste 0 1009.1 -0.2 77
2020-03-21 07:00:00 10.2 8 Oeste 14 Oeste 0 1009 -0.6 83
2020-03-21 06:00:00 10.2 5 Oeste 13 Oeste 0 1009.2 -1.2 82
2020-03-21 05:00:00 10.2 5 Noroeste 12 Noroeste 0 1009.3 -1.7 83
2020-03-21 04:00:00 10.5 6 Oeste 10 Oeste 0 1009.6 -1.8 83
2020-03-21 03:00:00 10.8 4 Noroeste 8 Noroeste 0 1010.4 -1.8 84
2020-03-21 02:00:00 11.5 3 Noroeste 11 Norte 0 1011 -1.3 83
2020-03-21 01:00:00 12.5 5 Norte 11 Norte 0 1011.4 -0.8 81
2020-03-21 00:00:00 12.8 4 Norte 11 Nordeste 0 1012.2 0.2 82
2020-03-20 23:00:00 13.5 6 Nordeste 15 Nordeste 0 1012.3 0.4 81
2020-03-20 22:00:00 13.3 5 Nordeste 13 Norte 0 1012.2 0.4 83
2020-03-20 21:00:00 13.2 7 Norte 17 Nordeste 0 1012 0.2 81
2020-03-20 20:00:00 13.5 8 Nordeste 17 Nordeste 0 1011.9 -0.2 82
2020-03-20 19:00:00 13.9 8 Nordeste 21 Nordeste 0 1011.8 -0.7 82
2020-03-20 18:00:00 14.4 7 Nordeste 21 Este 0 1011.8 -1.1 79
2020-03-20 17:00:00 14.6 8 Nordeste 22 Nordeste 0 1012.1 -1.4 78
2020-03-20 16:00:00 15 8 Este 23 Este 0 1012.5 -1.1 75
2020-03-20 15:00:00 15.6 9 Este 28 Este 0 1012.9 -1.1 68
2020-03-20 14:00:00 16.3 11 Este 28 Este 0 1013.5 -0.8 68
2020-03-20 13:00:00 16.4 11 Este 23 Este 0 1013.6 -0.6 64
2020-03-20 12:00:00 15.8 9 Este 22 Este 0 1014 0 68
2020-03-20 11:00:00 14.2 8 Nordeste 15 Nordeste 0 1014.3 0.6 75
2020-03-20 10:00:00 14 5 Nordeste 12 Norte 0 1014.2 0.6 72
2020-03-20 09:00:00 13 5 Noroeste 12 Noroeste 0 1014 0.4 77
2020-03-20 08:00:00 11.7 5 Noroeste 10 Noroeste 0 1013.7 0.1 82
2020-03-20 07:00:00 11.4 4 Noroeste 8 Noroeste 0 1013.6 0 83
2020-03-20 06:00:00 11.5 4 Noroeste 8 Noroeste 0 1013.6 -0.5 83
2020-03-20 05:00:00 11.5 3 Noroeste 9 Noroeste 0 1013.6 -0.9 83
2020-03-20 04:00:00 11.4 4 Noroeste 9 Noroeste 0 1013.6 -1.1 84
2020-03-20 03:00:00 11.5 5 Noroeste 9 Noroeste 0 1014.1 -1.3 86
2020-03-20 02:00:00 11.4 4 Noroeste 7 Noroeste 0 1014.5 -1.1 86
2020-03-20 01:00:00 11.2 4 Noroeste 7 Noroeste 0 1014.7 -1 87
2020-03-20 00:00:00 11.3 4 Noroeste 7 Noroeste 0 1015.4 -0.2 85
2020-03-19 23:00:00 12.1 4 Noroeste 11 Norte 0 1015.6 0.1 84
2020-03-19 22:00:00 13 6 Norte 11 Nordeste 0 1015.7 0.4 84
2020-03-19 21:00:00 12.9 4 Nordeste 11 Nordeste 0 1015.6 0.4 87
2020-03-19 20:00:00 13.1 5 Nordeste 14 Este 0 1015.5 0.2 87
2020-03-19 19:00:00 13.9 4 Nordeste 15 Este 0 1015.3 -0.5 83
2020-03-19 18:00:00 14.7 6 Este 21 Este 0 1015.2 -1.1 79
2020-03-19 17:00:00 15.6 9 Este 23 Sudeste 0 1015.3 -1.5 74
2020-03-19 16:00:00 16 8 Este 22 Este 0 1015.8 -1.7 72
2020-03-19 15:00:00 16.1 12 Este 23 Sudeste 0 1016.3 -1.7 71
2020-03-19 14:00:00 17.1 9 Este 19 Este 0 1016.8 -1.7 65
2020-03-19 13:00:00 16.9 11 Este 21 Este 0 1017.5 -1 64
2020-03-19 12:00:00 16.2 8 Este 17 Sudeste 0 1018 -0.3 66
2020-03-19 11:00:00 14.9 8 Nordeste 18 Norte 0 1018.5 0.4 71
2020-03-19 10:00:00 12.6 3 Noroeste 10 Oeste 0 1018.5 0.6 77
2020-03-19 09:00:00 10.5 7 Oeste 14 Noroeste 0 1018.3 0.4 83
2020-03-19 08:00:00 9.4 9 Oeste 14 Noroeste 0 1018.1 0.3 84
2020-03-19 07:00:00 9.2 8 Oeste 15 Oeste 0 1017.9 -0.2 86
2020-03-19 06:00:00 9.2 9 Oeste 13 Oeste 0 1017.9 -0.6 87
2020-03-19 05:00:00 9.8 5 Noroeste 9 Noroeste 0 1017.8 -1.3 87
2020-03-19 04:00:00 10 4 Noroeste 9 Noroeste 0 1018.1 -1.4 89
2020-03-19 03:00:00 10.6 4 Noroeste 9 Noroeste 0 1018.5 -1.5 89
2020-03-19 02:00:00 11.1 4 Noroeste 10 Oeste 0 1019.1 -1.2 89
2020-03-19 01:00:00 11.2 5 Oeste 8 Noroeste 0 1019.5 -0.8 90
2020-03-19 00:00:00 11.6 5 Noroeste 10 Oeste 0 1020 -0.1 89
2020-03-18 23:00:00 12 0 Calma 7 Oeste 0 1020.3 0.3 89
2020-03-18 22:00:00 12.2 4 Noroeste 11 Norte 0 1020.3 0.7 87
2020-03-18 21:00:00 12.8 5 Norte 12 Norte 0 1020.1 0.7 87
2020-03-18 20:00:00 12.9 4 Nordeste 12 Este 0 1020 0.6 87
2020-03-18 19:00:00 13.7 5 Nordeste 19 Este 0 1019.6 -0.2 82
2020-03-18 18:00:00 14.5 9 Este 23 Este 0 1019.4 -0.6 76
2020-03-18 17:00:00 15 9 Este 28 Este 0 1019.4 -1.4 73
2020-03-18 16:00:00 15.6 9 Este 23 Este 0 1019.8 -1.6 70
2020-03-18 15:00:00 15.6 9 Este 28 Este 0 1020 -2 68
2020-03-18 14:00:00 15.6 7 Nordeste 18 Nordeste 0 1020.8 -1.6 77
2020-03-18 13:00:00 16.1 7 Este 15 Este 0 1021.4 -1 76
2020-03-18 12:00:00 15.4 6 Nordeste 15 Nordeste 0 1022 -0.2 78
2020-03-18 11:00:00 15.3 5 Este 13 Norte 0 1022.4 0.5 75
2020-03-18 10:00:00 13.6 3 Norte 8 Noroeste 0 1022.4 0.6 79
2020-03-18 09:00:00 12.1 5 Noroeste 9 Oeste 0 1022.2 0.2 83
2020-03-18 08:00:00 11.3 4 Noroeste 12 Noroeste 0 1021.9 0 85
2020-03-18 07:00:00 11.2 4 Noroeste 9 Noroeste 0 1021.8 -0.1 85
2020-03-18 06:00:00 11.5 4 Noroeste 7 Noroeste 0 1022 -0.3 85
2020-03-18 05:00:00 12 4 Noroeste 8 Noroeste 0 1021.9 -0.7 83
2020-03-18 04:00:00 12.6 4 Noroeste 9 Norte 0 1021.9 -0.9 80
2020-03-18 03:00:00 13 5 Norte 9 Noroeste 0 1022.3 -0.9 78
2020-03-18 02:00:00 12.9 5 Norte 8 Norte 0 1022.6 -0.7 80
2020-03-18 01:00:00 12.6 3 Noroeste 6 Noroeste 0 1022.8 -0.2 82
2020-03-18 00:00:00 12.7 4 Noroeste 7 Noroeste 0 1023.2 0.5 83
2020-03-17 23:00:00 13.3 3 Norte 13 Norte 0 1023.3 1.3 83
2020-03-17 22:00:00 13.9 6 Norte 14 Norte 0 1023 1.5 82
2020-03-17 21:00:00 14.5 7 Norte 15 Nordeste 0 1022.7 1.5 80
2020-03-17 20:00:00 14.6 10 Nordeste 18 Nordeste 0 1022 1.5 82
2020-03-17 19:00:00 14.8 6 Nordeste 20 Nordeste 0 1021.5 1.3 83
2020-03-17 18:00:00 14.9 6 Nordeste 27 Nordeste 0 1021.2 1.1 85
2020-03-17 17:00:00 14.9 17 Nordeste 32 Nordeste 0 1020.5 0.6 86
2020-03-17 16:00:00 14.8 14 Nordeste 38 Nordeste 0 1020.2 0.2 89
2020-03-17 15:00:00 14.6 18 Nordeste 40 Nordeste 0 1020.1 0 90
2020-03-17 14:00:00 14.6 19 Nordeste 38 Nordeste 0 1019.9 0.2 92
2020-03-17 13:00:00 14.8 14 Nordeste 34 Norte 0 1020 0.9 94
2020-03-17 12:00:00 14.5 12 Nordeste 26 Este 0.6 1020.1 1.6 97
2020-03-17 11:00:00 14.4 9 Nordeste 30 Nordeste 4.2 1019.7 2.4 98
2020-03-17 10:00:00 14.3 13 Nordeste 32 Nordeste 4 1019.1 2.7 97
2020-03-17 09:00:00 14.2 12 Este 28 Este 1.2 1018.5 2.7 98
2020-03-17 08:00:00 12.8 2 Nordeste 5 Norte 0.2 1017.3 2.3 96
2020-03-17 07:00:00 12.7 3 Norte 5 Norte 1 1016.4 1.7 96
2020-03-17 06:00:00 12.5 2 Sudoeste 10 Sur 0.6 1015.8 1.1 96
2020-03-17 05:00:00 12.6 3 Noroeste 9 Norte 0.6 1015 0.7 96
2020-03-17 04:00:00 12.4 3 Norte 11 Sudoeste 0.4 1014.7 1 96
2020-03-17 03:00:00 12.5 6 Sudoeste 15 Sur 3.6 1014.7 1.2 97
2020-03-17 02:00:00 13 8 Sur 13 Sur 0.6 1014.3 1.4 96
2020-03-17 01:00:00 13.5 5 Sur 13 Sur 1.2 1013.7 1.5 95
2020-03-17 00:00:00 14.2 6 Sur 10 Sudeste 0.2 1013.5 2.5 95
2020-03-16 23:00:00 14.7 4 Este 16 Este 0 1012.9 2.8 97
2020-03-16 22:00:00 14.8 6 Este 15 Este 0 1012.2 3.4 97
2020-03-16 21:00:00 14.7 6 Nordeste 15 Nordeste 0 1011 2.7 97
2020-03-16 20:00:00 14.5 4 Nordeste 10 Nordeste 0.2 1010.1 2.6 95
2020-03-16 19:00:00 14.8 3 Este 13 Norte 0.4 1008.8 1.7 95
2020-03-16 18:00:00 14.8 5 Nordeste 18 Nordeste 0 1008.3 1.5 93
2020-03-16 17:00:00 14.5 8 Nordeste 18 Nordeste 0 1007.5 0.5 93
2020-03-16 16:00:00 14.2 8 Este 22 Nordeste 1.4 1007.1 0.1 95
2020-03-16 15:00:00 13.2 6 Nordeste 15 Nordeste 2 1006.8 -0.2 94
2020-03-16 14:00:00 13 5 Este 17 Nordeste 0.2 1007 0.1 92
2020-03-16 13:00:00 13.5 5 Este 26 Este 0.4 1007 0.2 91
2020-03-16 12:00:00 13.9 11 Nordeste 20 Nordeste 0 1007 0.3 91
2020-03-16 11:00:00 13.9 10 Nordeste 22 Nordeste 0 1006.9 0.5 84
2020-03-16 10:00:00 13.5 10 Nordeste 21 Este 0.2 1006.8 0.9 87
2020-03-16 09:00:00 13.3 5 Este 24 Este 2.2 1006.7 1 93
2020-03-16 08:00:00 13.6 13 Este 25 Sudeste 1.8 1006.4 0 93
2020-03-16 07:00:00 14 7 Este 12 Este 0.2 1005.9 -0.7 91
2020-03-16 06:00:00 13.8 3 Nordeste 15 Este 0 1005.7 -1.8 90
2020-03-16 05:00:00 13.7 2 Este 7 Nordeste 0 1006.4 -2.1 89
2020-03-16 04:00:00 13.8 4 Nordeste 8 Norte 0 1006.6 -2.3 89
2020-03-16 03:00:00 13.9 4 Nordeste 6 Nordeste 0 1007.5 -2.1 88
2020-03-16 02:00:00 14 0 Calma 4 Este 0 1008.5 -1.7 87
2020-03-16 01:00:00 13.7 2 Este 7 Sudeste 0 1008.9 -1.3 86
2020-03-16 00:00:00 13.9 0 Calma 6 Noroeste 0 1009.6 -0.3 85
2020-03-15 23:00:00 14 3 Norte 6 Norte 0 1010.2 0.4 85
2020-03-15 22:00:00 14.2 0 Calma 3 Sudeste 0 1010.2 0.9 85
2020-03-15 21:00:00 14.4 2 Sudeste 7 Este 0 1009.9 0.5 84
2020-03-15 20:00:00 14.7 6 Este 10 Este 0 1009.8 0 83
2020-03-15 19:00:00 15.3 6 Sudeste 16 Sudeste 0 1009.3 -0.6 79
2020-03-15 18:00:00 16.3 7 Sudeste 18 Sudeste 0 1009.4 -1 72
2020-03-15 17:00:00 17.2 9 Sur 24 Sudeste 0 1009.8 -1.6 70
2020-03-15 16:00:00 17.9 11 Sudeste 26 Sudeste 0 1009.9 -2.4 65
2020-03-15 15:00:00 18.4 14 Sudeste 27 Sudeste 0 1010.4 -2.7 59
2020-03-15 14:00:00 19.5 13 Sudeste 24 Sudeste 0 1011.4 -2.1 58
2020-03-15 13:00:00 19 12 Sur 21 Este 0 1012.3 -1.4 62
2020-03-15 12:00:00 17.4 8 Sudeste 16 Este 0 1013.1 -0.5 69
2020-03-15 11:00:00 16 5 Sudeste 12 Este 0 1013.5 0.2 76
2020-03-15 10:00:00 14.7 3 Nordeste 10 Oeste 0 1013.7 0.6 80
2020-03-15 09:00:00 12.4 4 Noroeste 8 Noroeste 0 1013.6 0.6 87
2020-03-15 08:00:00 10.9 8 Oeste 12 Oeste 0 1013.3 0.2 89
2020-03-15 07:00:00 10.4 4 Noroeste 10 Oeste 0 1013.1 -0.2 89
2020-03-15 06:00:00 9.5 4 Noroeste 9 Oeste 0 1013 -0.8 89
2020-03-15 05:00:00 9.8 4 Noroeste 9 Oeste 0 1013.1 -1.1 89
2020-03-15 04:00:00 10.1 5 Noroeste 9 Noroeste 0 1013.3 -1.2 90
2020-03-15 03:00:00 10.5 4 Noroeste 10 Noroeste 0 1013.8 -1 89
2020-03-15 02:00:00 11 6 Oeste 9 Oeste 0 1014.2 -0.7 90
2020-03-15 01:00:00 11.3 5 Oeste 6 Noroeste 0 1014.5 -0.2 88
2020-03-15 00:00:00 11.8 2 Noroeste 6 Noroeste 0 1014.8 0.2 89
2020-03-14 23:00:00 12.6 3 Noroeste 5 Noroeste 0 1014.9 0.6 86
2020-03-14 22:00:00 13.1 3 Oeste 4 Sudoeste 0 1014.7 0.8 89
2020-03-14 21:00:00 13.6 3 Sudoeste 5 Sur 0 1014.6 0.8 87
2020-03-14 20:00:00 14.1 3 Sur 7 Sur 0 1014.3 0.7 84
2020-03-14 19:00:00 15 3 Sudeste 9 Este 0 1013.9 0.4 81
2020-03-14 18:00:00 15.7 5 Este 13 Este 0 1013.8 0 77
2020-03-14 17:00:00 16.6 6 Sudeste 16 Este 0 1013.6 -0.8 71
2020-03-14 16:00:00 17.7 9 Sudeste 17 Sudeste 0 1013.5 -1.5 63
2020-03-14 15:00:00 18.9 9 Sudeste 18 Este 0 1013.8 -1.6 56
2020-03-14 14:00:00 18.6 9 Sudeste 19 Este 0 1014.4 -1.2 58
2020-03-14 13:00:00 18.6 9 Sudeste 19 Este 0 1015 -0.6 56
2020-03-14 12:00:00 18.3 8 Este 20 Sudeste 0 1015.4 0.3 51
2020-03-14 11:00:00 17.2 6 Este 15 Este 0 1015.6 1.3 51
2020-03-14 10:00:00 15 5 Este 11 Este 0 1015.6 2.3 62
2020-03-14 09:00:00 12.2 2 Sur 6 Noroeste 0 1015.1 2.2 82
2020-03-14 08:00:00 10.4 5 Noroeste 9 Noroeste 0 1014.3 1.3 81
2020-03-14 07:00:00 10.6 5 Noroeste 13 Noroeste 0 1013.3 0 79
2020-03-14 06:00:00 10 6 Noroeste 12 Noroeste 0 1012.9 -0.8 81
2020-03-14 05:00:00 10.2 4 Noroeste 8 Noroeste 0 1013 -1 79
2020-03-14 04:00:00 10.5 5 Noroeste 9 Noroeste 0 1013.3 -0.6 78
2020-03-14 03:00:00 11.1 4 Noroeste 7 Noroeste 0 1013.7 -0.3 75
2020-03-14 02:00:00 12.6 5 Oeste 13 Oeste 0 1014 -0.3 75
2020-03-14 01:00:00 12.5 7 Oeste 11 Oeste 0 1013.9 -0.2 72
2020-03-14 00:00:00 12.6 4 Noroeste 9 Oeste 0 1014 0.1 71
2020-03-13 23:00:00 13.1 5 Oeste 9 Norte 0 1014.3 0.8 69
2020-03-13 22:00:00 13.8 4 Noroeste 8 Noroeste 0 1014.1 0.8 64
2020-03-13 21:00:00 14.6 3 Nordeste 7 Este 0 1013.9 0.8 63
2020-03-13 20:00:00 15.2 3 Este 9 Este 0 1013.5 0.1 60
2020-03-13 19:00:00 15.9 3 Nordeste 13 Norte 0 1013.3 -0.5 58
2020-03-13 18:00:00 16.4 4 Nordeste 13 Norte 0 1013.1 -1.1 59
2020-03-13 17:00:00 16.8 7 Nordeste 19 Nordeste 0 1013.4 -1.2 61
2020-03-13 16:00:00 17.8 7 Este 27 Sudeste 0 1013.8 -1.6 60
2020-03-13 15:00:00 18.5 9 Este 28 Este 0 1014.2 -1.2 58
2020-03-13 14:00:00 18.7 9 Este 28 Este 0 1014.6 -0.9 57
2020-03-13 13:00:00 18.5 10 Este 23 Este 0 1015.4 -0.1 59
2020-03-13 12:00:00 19.3 6 Este 22 Nordeste 0 1015.4 0.2 54
2020-03-13 11:00:00 17.6 6 Nordeste 16 Este 0 1015.5 1.1 61
2020-03-13 10:00:00 15 5 Noroeste 11 Noroeste 0 1015.5 1.8 75
2020-03-13 09:00:00 12.4 5 Noroeste 8 Sudeste 0 1015.2 2 85
2020-03-13 08:00:00 10.7 3 Sudoeste 5 Sudoeste 0 1014.4 1.7 88
2020-03-13 07:00:00 10.9 2 Noroeste 11 Noroeste 0 1013.7 1.2 86
2020-03-13 06:00:00 11 5 Noroeste 10 Noroeste 0 1013.2 0.5 85
2020-03-13 05:00:00 11.4 5 Oeste 9 Noroeste 0 1012.7 -0.1 89
2020-03-13 04:00:00 11.2 4 Sudoeste 8 Sudoeste 0 1012.5 -0.3 91
2020-03-13 03:00:00 11.6 3 Oeste 5 Nordeste 0 1012.7 -0.1 93
2020-03-13 02:00:00 11.9 4 Nordeste 6 Este 0 1012.8 0.1 94
2020-03-13 01:00:00 12.4 4 Noroeste 8 Nordeste 0 1012.8 0.6 85
2020-03-13 00:00:00 13.4 3 Este 8 Este 0 1012.8 0.5 90
2020-03-12 23:00:00 13.6 4 Nordeste 7 Nordeste 0 1012.7 0.5 89
2020-03-12 22:00:00 13.8 2 Nordeste 7 Nordeste 0 1012.2 0.3 92
2020-03-12 21:00:00 14.3 3 Nordeste 6 Nordeste 0 1012.3 0.6 88
2020-03-12 20:00:00 14.9 4 Nordeste 7 Nordeste 0 1012.2 0.4 86
2020-03-12 19:00:00 15.4 3 Nordeste 10 Este 0 1011.9 -0.1 83
2020-03-12 18:00:00 16.5 5 Este 14 Este 0 1011.7 -1.1 78
2020-03-12 17:00:00 17.4 8 Sudeste 17 Este 0 1011.8 -1.8 73
2020-03-12 16:00:00 18.1 9 Este 20 Este 0 1012 -2.8 69
2020-03-12 15:00:00 20.1 8 Sudeste 15 Sudeste 0 1012.8 -2.4 56
2020-03-12 14:00:00 19.9 7 Sudeste 16 Este 0 1013.6 -1.7 57
2020-03-12 13:00:00 17.8 7 Este 17 Este 0 1014.8 -0.8 72
2020-03-12 12:00:00 18.1 7 Sudeste 17 Sudeste 0 1015.2 -0.4 70
2020-03-12 11:00:00 16.7 7 Sudeste 13 Este 0 1015.3 0.2 74
2020-03-12 10:00:00 14.6 4 Este 13 Este 0 1015.6 0.8 83
2020-03-12 09:00:00 13.1 5 Este 9 Este 0 1015.6 1.3 86
2020-03-12 08:00:00 10.4 3 Noroeste 7 Norte 0 1015.1 0.6 85
2020-03-12 07:00:00 10.4 0 Calma 5 Norte 0 1014.8 0.1 87
2020-03-12 06:00:00 10.5 4 Norte 8 Noroeste 0 1014.3 -1 80
2020-03-12 05:00:00 10.8 5 Noroeste 7 Noroeste 0 1014.5 -1.1 76
2020-03-12 04:00:00 11.4 4 Noroeste 7 Noroeste 0 1014.7 -1.1 73
2020-03-12 03:00:00 11.9 3 Noroeste 6 Noroeste 0 1015.3 -1 71
2020-03-12 02:00:00 12.5 3 Noroeste 6 Noroeste 0 1015.6 -1.2 69
2020-03-12 01:00:00 12.8 4 Oeste 9 Noroeste 0 1015.8 -0.9 67
2020-03-12 00:00:00 13.5 4 Noroeste 7 Noroeste 0 1016.3 -0.3 64
2020-03-11 23:00:00 14.2 2 Noroeste 8 Oeste 0 1016.8 0 63
2020-03-11 22:00:00 14.7 5 Oeste 9 Oeste 0 1016.7 -0.1 61
2020-03-11 21:00:00 15.7 5 Noroeste 7 Noroeste 0 1016.6 0.1 57
2020-03-11 20:00:00 16.2 0 Calma 4 Sudeste 0 1016.8 0.6 59
2020-03-11 19:00:00 17.5 4 Sudeste 9 Este 0 1016.8 0.5 52
2020-03-11 18:00:00 18.8 5 Este 15 Este 0 1016.5 -0.1 49
2020-03-11 17:00:00 20.1 10 Este 17 Este 0 1016.2 -0.9 41
2020-03-11 16:00:00 21.1 8 Este 18 Este 0 1016.3 -1.3 40
2020-03-11 15:00:00 20.7 9 Este 18 Este 0 1016.6 -1.5 44
2020-03-11 14:00:00 21.1 7 Este 17 Nordeste 0 1017.1 -1 48
2020-03-11 13:00:00 21.6 9 Este -- -- -- 1017.6 0 46
2020-03-11 12:00:00 19.7 5 Este 15 Este 0 1018.1 0.8 55
2020-03-11 11:00:00 18.2 9 Este 14 Este 0 1018.1 1.4 62
2020-03-11 10:00:00 16 4 Este 9 Nordeste 0 1017.6 0.9 72
2020-03-11 09:00:00 12.4 3 Norte 11 Oeste 0 1017.3 1.1 72
2020-03-11 08:00:00 10.1 5 Noroeste 9 Noroeste 0 1016.7 0.7 78
2020-03-11 07:00:00 10.5 5 Noroeste 10 Noroeste 0 1016.7 0.9 77
2020-03-11 06:00:00 12 6 Oeste 12 Sudoeste 0 1016.2 -0.5 72
2020-03-11 05:00:00 12.3 3 Sudoeste 15 Noroeste 0 1016 -1.3 72
2020-03-11 04:00:00 13.1 7 Noroeste 16 Oeste 0 1015.8 -1.6 66
2020-03-11 03:00:00 12.1 7 Oeste 14 Noroeste 0 1016.7 -0.8 76
2020-03-11 02:00:00 11.2 5 Noroeste 9 Noroeste 0 1017.3 -0.5 76
2020-03-11 01:00:00 12 5 Noroeste 16 Oeste 0 1017.4 -0.2 72
2020-03-11 00:00:00 12.6 8 Oeste 15 Noroeste 0 1017.5 -0.1 77